sensor_id;sensor_type;location;lat;lon;timestamp;temperature;humidity
42989;DHT22;28622;43.716;20.668;2022-10-18T00:01:01;7.20;99.90
42989;DHT22;28622;43.716;20.668;2022-10-18T00:03:27;7.20;99.90
42989;DHT22;28622;43.716;20.668;2022-10-18T00:05:53;7.20;99.90
42989;DHT22;28622;43.716;20.668;2022-10-18T00:08:19;7.20;99.90
42989;DHT22;28622;43.716;20.668;2022-10-18T00:10:45;7.10;99.90
42989;DHT22;28622;43.716;20.668;2022-10-18T00:13:11;7.10;99.90
42989;DHT22;28622;43.716;20.668;2022-10-18T00:15:37;7.00;99.90
42989;DHT22;28622;43.716;20.668;2022-10-18T00:18:03;6.90;99.90
42989;DHT22;28622;43.716;20.668;2022-10-18T00:20:29;6.90;99.90
42989;DHT22;28622;43.716;20.668;2022-10-18T00:22:55;6.80;99.90
42989;DHT22;28622;43.716;20.668;2022-10-18T00:25:20;6.70;99.90
42989;DHT22;28622;43.716;20.668;2022-10-18T00:27:46;6.70;99.90
42989;DHT22;28622;43.716;20.668;2022-10-18T00:30:12;6.70;99.90
42989;DHT22;28622;43.716;20.668;2022-10-18T00:32:39;6.60;99.90
42989;DHT22;28622;43.716;20.668;2022-10-18T00:35:06;6.60;99.90
42989;DHT22;28622;43.716;20.668;2022-10-18T00:37:33;6.60;99.90
42989;DHT22;28622;43.716;20.668;2022-10-18T00:39:58;6.50;99.90
42989;DHT22;28622;43.716;20.668;2022-10-18T00:42:29;6.50;99.90
42989;DHT22;28622;43.716;20.668;2022-10-18T00:45:17;6.50;99.90
42989;DHT22;28622;43.716;20.668;2022-10-18T00:47:46;6.50;99.90
42989;DHT22;28622;43.716;20.668;2022-10-18T00:50:13;6.40;99.90
42989;DHT22;28622;43.716;20.668;2022-10-18T00:52:43;6.30;99.90
42989;DHT22;28622;43.716;20.668;2022-10-18T00:55:10;6.40;99.90
42989;DHT22;28622;43.716;20.668;2022-10-18T00:57:37;6.30;99.90
42989;DHT22;28622;43.716;20.668;2022-10-18T01:00:05;6.40;99.90
42989;DHT22;28622;43.716;20.668;2022-10-18T01:02:35;6.30;99.90
42989;DHT22;28622;43.716;20.668;2022-10-18T01:05:01;6.30;99.90
42989;DHT22;28622;43.716;20.668;2022-10-18T01:07:46;6.30;99.90
42989;DHT22;28622;43.716;20.668;2022-10-18T01:15:42;6.20;99.90
42989;DHT22;28622;43.716;20.668;2022-10-18T01:27:14;6.20;99.90
42989;DHT22;28622;43.716;20.668;2022-10-18T01:32:23;6.10;99.90
42989;DHT22;28622;43.716;20.668;2022-10-18T01:34:57;6.10;99.90
42989;DHT22;28622;43.716;20.668;2022-10-18T01:37:24;6.20;99.90
42989;DHT22;28622;43.716;20.668;2022-10-18T01:39:53;6.10;99.90
42989;DHT22;28622;43.716;20.668;2022-10-18T01:42:20;6.10;99.90
42989;DHT22;28622;43.716;20.668;2022-10-18T01:44:47;6.10;99.90
42989;DHT22;28622;43.716;20.668;2022-10-18T01:47:15;6.00;99.90
42989;DHT22;28622;43.716;20.668;2022-10-18T01:49:42;6.10;99.90
42989;DHT22;28622;43.716;20.668;2022-10-18T01:52:12;6.10;99.90
42989;DHT22;28622;43.716;20.668;2022-10-18T01:54:42;6.10;99.90
42989;DHT22;28622;43.716;20.668;2022-10-18T01:57:41;6.00;99.90
42989;DHT22;28622;43.716;20.668;2022-10-18T02:00:27;6.00;99.90
42989;DHT22;28622;43.716;20.668;2022-10-18T02:03:27;6.10;99.90
42989;DHT22;28622;43.716;20.668;2022-10-18T02:08:56;5.90;99.90
42989;DHT22;28622;43.716;20.668;2022-10-18T02:11:25;5.90;99.90
42989;DHT22;28622;43.716;20.668;2022-10-18T02:14:06;5.80;99.90
42989;DHT22;28622;43.716;20.668;2022-10-18T02:16:51;5.70;99.90
42989;DHT22;28622;43.716;20.668;2022-10-18T02:19:36;5.70;99.90
42989;DHT22;28622;43.716;20.668;2022-10-18T02:22:07;5.40;99.90
42989;DHT22;28622;43.716;20.668;2022-10-18T02:24:38;5.30;99.90
42989;DHT22;28622;43.716;20.668;2022-10-18T02:27:07;5.50;99.90
42989;DHT22;28622;43.716;20.668;2022-10-18T02:29:33;5.30;99.90
42989;DHT22;28622;43.716;20.668;2022-10-18T02:32:38;5.40;99.90
42989;DHT22;28622;43.716;20.668;2022-10-18T02:35:12;5.40;99.90
42989;DHT22;28622;43.716;20.668;2022-10-18T02:37:42;5.40;99.90
42989;DHT22;28622;43.716;20.668;2022-10-18T02:40:10;5.40;99.90
42989;DHT22;28622;43.716;20.668;2022-10-18T02:42:50;5.40;99.90
42989;DHT22;28622;43.716;20.668;2022-10-18T02:45:18;5.30;99.90
42989;DHT22;28622;43.716;20.668;2022-10-18T02:47:44;5.40;99.90
42989;DHT22;28622;43.716;20.668;2022-10-18T02:52:54;5.40;99.90
42989;DHT22;28622;43.716;20.668;2022-10-18T02:55:20;5.30;99.90
42989;DHT22;28622;43.716;20.668;2022-10-18T02:57:46;5.30;99.90
42989;DHT22;28622;43.716;20.668;2022-10-18T03:00:12;5.20;99.90
42989;DHT22;28622;43.716;20.668;2022-10-18T03:02:38;5.30;99.90
42989;DHT22;28622;43.716;20.668;2022-10-18T03:05:04;5.20;99.90
42989;DHT22;28622;43.716;20.668;2022-10-18T03:07:29;5.20;99.90
42989;DHT22;28622;43.716;20.668;2022-10-18T03:09:55;5.20;99.90
42989;DHT22;28622;43.716;20.668;2022-10-18T03:12:21;5.20;99.90
42989;DHT22;28622;43.716;20.668;2022-10-18T03:14:47;5.30;99.90
42989;DHT22;28622;43.716;20.668;2022-10-18T03:17:12;5.20;99.90
42989;DHT22;28622;43.716;20.668;2022-10-18T03:19:38;5.20;99.90
42989;DHT22;28622;43.716;20.668;2022-10-18T03:22:04;5.10;99.90
42989;DHT22;28622;43.716;20.668;2022-10-18T03:24:30;5.30;99.90
42989;DHT22;28622;43.716;20.668;2022-10-18T03:26:56;5.10;99.90
42989;DHT22;28622;43.716;20.668;2022-10-18T03:29:21;5.10;99.90
42989;DHT22;28622;43.716;20.668;2022-10-18T03:31:47;5.10;99.90
42989;DHT22;28622;43.716;20.668;2022-10-18T03:34:13;5.10;99.90
42989;DHT22;28622;43.716;20.668;2022-10-18T03:36:40;5.10;99.90
42989;DHT22;28622;43.716;20.668;2022-10-18T03:39:06;5.10;99.90
42989;DHT22;28622;43.716;20.668;2022-10-18T03:41:32;5.00;99.90
42989;DHT22;28622;43.716;20.668;2022-10-18T03:43:59;4.90;99.90
42989;DHT22;28622;43.716;20.668;2022-10-18T03:46:24;4.90;99.90
42989;DHT22;28622;43.716;20.668;2022-10-18T03:48:50;4.90;99.90
42989;DHT22;28622;43.716;20.668;2022-10-18T03:51:16;4.90;99.90
42989;DHT22;28622;43.716;20.668;2022-10-18T03:53:42;4.90;99.90
42989;DHT22;28622;43.716;20.668;2022-10-18T03:56:07;4.90;99.90
42989;DHT22;28622;43.716;20.668;2022-10-18T03:58:33;4.90;99.90
42989;DHT22;28622;43.716;20.668;2022-10-18T04:00:59;4.90;99.90
42989;DHT22;28622;43.716;20.668;2022-10-18T04:03:25;4.90;99.90
42989;DHT22;28622;43.716;20.668;2022-10-18T04:05:50;4.90;99.90
42989;DHT22;28622;43.716;20.668;2022-10-18T04:08:17;4.80;99.90
42989;DHT22;28622;43.716;20.668;2022-10-18T04:10:43;4.80;99.90
42989;DHT22;28622;43.716;20.668;2022-10-18T04:13:09;4.70;99.90
42989;DHT22;28622;43.716;20.668;2022-10-18T04:15:35;4.60;99.90
42989;DHT22;28622;43.716;20.668;2022-10-18T04:18:01;4.60;99.90
42989;DHT22;28622;43.716;20.668;2022-10-18T04:20:27;4.60;99.90
42989;DHT22;28622;43.716;20.668;2022-10-18T04:22:53;4.60;99.90
42989;DHT22;28622;43.716;20.668;2022-10-18T04:25:20;4.50;99.90
42989;DHT22;28622;43.716;20.668;2022-10-18T04:27:47;4.50;99.90
42989;DHT22;28622;43.716;20.668;2022-10-18T04:30:13;4.40;99.90
42989;DHT22;28622;43.716;20.668;2022-10-18T04:32:39;4.40;99.90
42989;DHT22;28622;43.716;20.668;2022-10-18T04:35:05;4.40;99.90
42989;DHT22;28622;43.716;20.668;2022-10-18T04:37:32;4.50;99.90
42989;DHT22;28622;43.716;20.668;2022-10-18T04:39:58;4.50;99.90
42989;DHT22;28622;43.716;20.668;2022-10-18T04:42:23;4.50;99.90
42989;DHT22;28622;43.716;20.668;2022-10-18T04:44:49;4.50;99.90
42989;DHT22;28622;43.716;20.668;2022-10-18T04:47:16;4.50;99.90
42989;DHT22;28622;43.716;20.668;2022-10-18T04:49:41;4.50;99.90
42989;DHT22;28622;43.716;20.668;2022-10-18T04:52:07;4.50;99.90
42989;DHT22;28622;43.716;20.668;2022-10-18T04:54:33;4.50;99.90
42989;DHT22;28622;43.716;20.668;2022-10-18T04:56:59;4.40;99.90
42989;DHT22;28622;43.716;20.668;2022-10-18T04:59:25;4.20;99.90
42989;DHT22;28622;43.716;20.668;2022-10-18T05:01:51;4.40;99.90
42989;DHT22;28622;43.716;20.668;2022-10-18T05:04:16;4.40;99.90
42989;DHT22;28622;43.716;20.668;2022-10-18T05:06:42;4.40;99.90
42989;DHT22;28622;43.716;20.668;2022-10-18T05:09:08;4.40;99.90
42989;DHT22;28622;43.716;20.668;2022-10-18T05:11:34;4.40;99.90
42989;DHT22;28622;43.716;20.668;2022-10-18T05:13:59;4.40;99.90
42989;DHT22;28622;43.716;20.668;2022-10-18T05:16:25;4.30;99.90
42989;DHT22;28622;43.716;20.668;2022-10-18T05:18:53;4.30;99.90
42989;DHT22;28622;43.716;20.668;2022-10-18T05:21:19;4.30;99.90
42989;DHT22;28622;43.716;20.668;2022-10-18T05:23:44;4.30;99.90
42989;DHT22;28622;43.716;20.668;2022-10-18T05:26:10;4.30;99.90
42989;DHT22;28622;43.716;20.668;2022-10-18T05:28:36;4.20;99.90
42989;DHT22;28622;43.716;20.668;2022-10-18T05:31:06;4.30;99.90
42989;DHT22;28622;43.716;20.668;2022-10-18T05:33:32;4.30;99.90
42989;DHT22;28622;43.716;20.668;2022-10-18T05:35:59;4.40;99.90
42989;DHT22;28622;43.716;20.668;2022-10-18T05:38:25;4.40;99.90
42989;DHT22;28622;43.716;20.668;2022-10-18T05:40:50;4.50;99.90
42989;DHT22;28622;43.716;20.668;2022-10-18T05:43:17;4.50;99.90
42989;DHT22;28622;43.716;20.668;2022-10-18T05:45:49;4.50;99.90
42989;DHT22;28622;43.716;20.668;2022-10-18T05:48:15;4.60;99.90
42989;DHT22;28622;43.716;20.668;2022-10-18T05:50:42;4.60;99.90
42989;DHT22;28622;43.716;20.668;2022-10-18T05:53:08;4.70;99.90
42989;DHT22;28622;43.716;20.668;2022-10-18T05:55:33;4.80;99.90
42989;DHT22;28622;43.716;20.668;2022-10-18T05:57:59;5.00;99.90
42989;DHT22;28622;43.716;20.668;2022-10-18T06:00:25;5.00;99.90
42989;DHT22;28622;43.716;20.668;2022-10-18T06:02:50;5.20;99.90
42989;DHT22;28622;43.716;20.668;2022-10-18T06:05:16;5.30;99.90
42989;DHT22;28622;43.716;20.668;2022-10-18T06:07:42;5.40;99.90
42989;DHT22;28622;43.716;20.668;2022-10-18T06:10:08;5.50;99.90
42989;DHT22;28622;43.716;20.668;2022-10-18T06:12:34;5.70;99.90
42989;DHT22;28622;43.716;20.668;2022-10-18T06:15:00;5.80;99.90
42989;DHT22;28622;43.716;20.668;2022-10-18T06:17:25;5.90;99.90
42989;DHT22;28622;43.716;20.668;2022-10-18T06:19:51;6.00;99.90
42989;DHT22;28622;43.716;20.668;2022-10-18T06:22:17;6.10;99.90
42989;DHT22;28622;43.716;20.668;2022-10-18T06:24:42;6.20;99.90
42989;DHT22;28622;43.716;20.668;2022-10-18T06:27:08;6.30;99.90
42989;DHT22;28622;43.716;20.668;2022-10-18T06:29:35;6.40;99.90
42989;DHT22;28622;43.716;20.668;2022-10-18T06:32:02;6.50;99.90
42989;DHT22;28622;43.716;20.668;2022-10-18T06:34:28;6.70;99.90
42989;DHT22;28622;43.716;20.668;2022-10-18T06:36:54;6.90;99.90
42989;DHT22;28622;43.716;20.668;2022-10-18T06:39:20;7.10;99.90
42989;DHT22;28622;43.716;20.668;2022-10-18T06:41:46;7.40;99.90
42989;DHT22;28622;43.716;20.668;2022-10-18T06:44:12;7.60;99.90
42989;DHT22;28622;43.716;20.668;2022-10-18T06:46:42;7.90;99.90
42989;DHT22;28622;43.716;20.668;2022-10-18T06:49:09;8.30;99.90
42989;DHT22;28622;43.716;20.668;2022-10-18T06:51:35;8.60;99.90
42989;DHT22;28622;43.716;20.668;2022-10-18T06:54:01;8.80;99.90
42989;DHT22;28622;43.716;20.668;2022-10-18T06:56:27;9.00;99.90
42989;DHT22;28622;43.716;20.668;2022-10-18T06:58:53;9.20;99.90
42989;DHT22;28622;43.716;20.668;2022-10-18T07:01:19;9.30;99.90
42989;DHT22;28622;43.716;20.668;2022-10-18T07:08:39;10.00;99.90
42989;DHT22;28622;43.716;20.668;2022-10-18T07:11:06;10.00;99.90
42989;DHT22;28622;43.716;20.668;2022-10-18T07:13:32;10.30;99.90
42989;DHT22;28622;43.716;20.668;2022-10-18T07:16:07;10.60;99.90
42989;DHT22;28622;43.716;20.668;2022-10-18T07:18:44;11.00;99.90
42989;DHT22;28622;43.716;20.668;2022-10-18T07:21:12;11.40;99.90
42989;DHT22;28622;43.716;20.668;2022-10-18T07:23:43;11.80;99.90
42989;DHT22;28622;43.716;20.668;2022-10-18T07:26:11;11.80;99.90
42989;DHT22;28622;43.716;20.668;2022-10-18T07:28:37;11.90;99.90
42989;DHT22;28622;43.716;20.668;2022-10-18T07:31:07;12.10;99.90
42989;DHT22;28622;43.716;20.668;2022-10-18T07:33:34;12.30;99.90
42989;DHT22;28622;43.716;20.668;2022-10-18T07:36:01;12.50;99.90
42989;DHT22;28622;43.716;20.668;2022-10-18T07:38:28;12.60;99.90
42989;DHT22;28622;43.716;20.668;2022-10-18T07:40:57;12.70;99.90
42989;DHT22;28622;43.716;20.668;2022-10-18T07:43:23;12.90;99.90
42989;DHT22;28622;43.716;20.668;2022-10-18T07:46:00;13.30;99.90
42989;DHT22;28622;43.716;20.668;2022-10-18T07:48:26;13.80;99.90
42989;DHT22;28622;43.716;20.668;2022-10-18T07:50:53;14.10;99.90
42989;DHT22;28622;43.716;20.668;2022-10-18T07:53:18;14.40;99.90
42989;DHT22;28622;43.716;20.668;2022-10-18T07:55:44;14.50;99.90
42989;DHT22;28622;43.716;20.668;2022-10-18T07:58:11;14.70;99.90
42989;DHT22;28622;43.716;20.668;2022-10-18T08:00:36;14.70;99.90
42989;DHT22;28622;43.716;20.668;2022-10-18T08:03:02;14.60;99.90
42989;DHT22;28622;43.716;20.668;2022-10-18T08:05:28;14.60;99.90
42989;DHT22;28622;43.716;20.668;2022-10-18T08:07:55;15.10;99.90
42989;DHT22;28622;43.716;20.668;2022-10-18T08:10:21;15.00;99.90
42989;DHT22;28622;43.716;20.668;2022-10-18T08:12:49;15.00;99.90
42989;DHT22;28622;43.716;20.668;2022-10-18T08:15:14;14.90;99.90
42989;DHT22;28622;43.716;20.668;2022-10-18T08:17:40;15.20;99.40
42989;DHT22;28622;43.716;20.668;2022-10-18T08:20:08;15.40;99.20
42989;DHT22;28622;43.716;20.668;2022-10-18T08:22:34;15.30;99.10
42989;DHT22;28622;43.716;20.668;2022-10-18T08:25:00;15.90;98.20
42989;DHT22;28622;43.716;20.668;2022-10-18T08:27:26;16.30;97.70
42989;DHT22;28622;43.716;20.668;2022-10-18T08:29:52;16.50;96.20
42989;DHT22;28622;43.716;20.668;2022-10-18T08:32:18;16.20;96.30
42989;DHT22;28622;43.716;20.668;2022-10-18T08:34:43;16.30;96.60
42989;DHT22;28622;43.716;20.668;2022-10-18T08:37:09;16.50;96.60
42989;DHT22;28622;43.716;20.668;2022-10-18T08:39:35;16.90;94.60
42989;DHT22;28622;43.716;20.668;2022-10-18T08:44:42;17.60;94.20
42989;DHT22;28622;43.716;20.668;2022-10-18T08:47:17;17.40;93.00
42989;DHT22;28622;43.716;20.668;2022-10-18T08:49:48;17.60;92.70
42989;DHT22;28622;43.716;20.668;2022-10-18T08:54:55;18.10;92.20
42989;DHT22;28622;43.716;20.668;2022-10-18T08:57:23;18.30;92.00
42989;DHT22;28622;43.716;20.668;2022-10-18T08:59:49;18.10;91.50
42989;DHT22;28622;43.716;20.668;2022-10-18T09:05:15;19.40;90.80
42989;DHT22;28622;43.716;20.668;2022-10-18T09:10:22;18.90;89.80
42989;DHT22;28622;43.716;20.668;2022-10-18T09:20:59;19.10;89.80
42989;DHT22;28622;43.716;20.668;2022-10-18T09:23:47;19.30;89.60
42989;DHT22;28622;43.716;20.668;2022-10-18T09:26:20;19.80;87.10
42989;DHT22;28622;43.716;20.668;2022-10-18T09:31:48;19.50;86.10
42989;DHT22;28622;43.716;20.668;2022-10-18T09:36:55;19.80;87.60
42989;DHT22;28622;43.716;20.668;2022-10-18T09:39:36;20.20;85.90
42989;DHT22;28622;43.716;20.668;2022-10-18T09:42:07;20.30;85.30
42989;DHT22;28622;43.716;20.668;2022-10-18T09:44:40;20.40;85.30
42989;DHT22;28622;43.716;20.668;2022-10-18T09:47:25;20.70;84.30
42989;DHT22;28622;43.716;20.668;2022-10-18T09:49:57;20.30;82.30
42989;DHT22;28622;43.716;20.668;2022-10-18T09:52:30;20.60;85.10
42989;DHT22;28622;43.716;20.668;2022-10-18T09:55:07;20.90;82.60
42989;DHT22;28622;43.716;20.668;2022-10-18T09:57:41;21.60;82.90
42989;DHT22;28622;43.716;20.668;2022-10-18T10:00:23;21.80;79.70
42989;DHT22;28622;43.716;20.668;2022-10-18T10:02:50;21.90;80.50
42989;DHT22;28622;43.716;20.668;2022-10-18T10:05:16;22.30;80.50
42989;DHT22;28622;43.716;20.668;2022-10-18T10:07:45;22.00;74.60
42989;DHT22;28622;43.716;20.668;2022-10-18T10:10:22;21.80;74.80
42989;DHT22;28622;43.716;20.668;2022-10-18T10:15:28;21.60;73.60
42989;DHT22;28622;43.716;20.668;2022-10-18T10:18:01;21.90;74.70
42989;DHT22;28622;43.716;20.668;2022-10-18T10:20:51;21.90;75.10
42989;DHT22;28622;43.716;20.668;2022-10-18T10:23:30;21.90;72.30
42989;DHT22;28622;43.716;20.668;2022-10-18T10:26:03;21.90;73.10
42989;DHT22;28622;43.716;20.668;2022-10-18T10:28:35;21.90;73.30
42989;DHT22;28622;43.716;20.668;2022-10-18T10:33:57;22.40;74.90
42989;DHT22;28622;43.716;20.668;2022-10-18T10:36:24;22.40;73.60
42989;DHT22;28622;43.716;20.668;2022-10-18T10:39:12;22.50;74.20
42989;DHT22;28622;43.716;20.668;2022-10-18T10:41:42;22.40;73.00
42989;DHT22;28622;43.716;20.668;2022-10-18T10:44:17;22.60;71.70
42989;DHT22;28622;43.716;20.668;2022-10-18T10:46:43;22.50;68.20
42989;DHT22;28622;43.716;20.668;2022-10-18T10:52:03;22.40;64.80
42989;DHT22;28622;43.716;20.668;2022-10-18T10:54:30;22.30;64.30
42989;DHT22;28622;43.716;20.668;2022-10-18T10:57:02;22.50;66.30
42989;DHT22;28622;43.716;20.668;2022-10-18T10:59:56;22.60;66.50
42989;DHT22;28622;43.716;20.668;2022-10-18T11:02:32;22.70;67.30
42989;DHT22;28622;43.716;20.668;2022-10-18T11:05:25;22.70;67.60
42989;DHT22;28622;43.716;20.668;2022-10-18T11:07:55;22.80;68.10
42989;DHT22;28622;43.716;20.668;2022-10-18T11:10:25;23.10;69.50
42989;DHT22;28622;43.716;20.668;2022-10-18T11:13:10;23.20;69.90
42989;DHT22;28622;43.716;20.668;2022-10-18T11:15:46;23.40;70.10
42989;DHT22;28622;43.716;20.668;2022-10-18T11:20:48;23.60;68.50
42989;DHT22;28622;43.716;20.668;2022-10-18T11:23:17;23.80;69.20
42989;DHT22;28622;43.716;20.668;2022-10-18T11:26:05;23.70;69.70
42989;DHT22;28622;43.716;20.668;2022-10-18T11:43:26;23.80;68.60
42989;DHT22;28622;43.716;20.668;2022-10-18T12:05:53;24.40;66.90
42989;DHT22;28622;43.716;20.668;2022-10-18T12:10:55;24.10;69.10
42989;DHT22;28622;43.716;20.668;2022-10-18T12:16:01;24.20;69.30
42989;DHT22;28622;43.716;20.668;2022-10-18T12:18:29;24.40;67.70
42989;DHT22;28622;43.716;20.668;2022-10-18T12:20:57;24.50;69.20
42989;DHT22;28622;43.716;20.668;2022-10-18T12:26:05;24.60;68.10
42989;DHT22;28622;43.716;20.668;2022-10-18T12:31:52;24.40;67.30
42989;DHT22;28622;43.716;20.668;2022-10-18T12:34:23;24.40;67.60
42989;DHT22;28622;43.716;20.668;2022-10-18T12:39:54;24.50;67.20
42989;DHT22;28622;43.716;20.668;2022-10-18T12:42:23;24.30;68.50
42989;DHT22;28622;43.716;20.668;2022-10-18T12:45:00;24.30;68.00
42989;DHT22;28622;43.716;20.668;2022-10-18T12:47:28;24.30;67.80
42989;DHT22;28622;43.716;20.668;2022-10-18T12:49:58;24.20;67.40
42989;DHT22;28622;43.716;20.668;2022-10-18T12:52:27;24.00;69.10
42989;DHT22;28622;43.716;20.668;2022-10-18T12:55:26;23.80;70.30
42989;DHT22;28622;43.716;20.668;2022-10-18T13:16:04;23.40;69.20
42989;DHT22;28622;43.716;20.668;2022-10-18T13:18:54;23.50;70.00
42989;DHT22;28622;43.716;20.668;2022-10-18T13:24:24;23.80;69.60
42989;DHT22;28622;43.716;20.668;2022-10-18T13:35:55;24.20;67.90
42989;DHT22;28622;43.716;20.668;2022-10-18T13:38:35;24.20;68.00
42989;DHT22;28622;43.716;20.668;2022-10-18T13:57:19;23.50;67.60
42989;DHT22;28622;43.716;20.668;2022-10-18T14:07:30;22.80;68.10
42989;DHT22;28622;43.716;20.668;2022-10-18T14:09:57;22.70;68.80
42989;DHT22;28622;43.716;20.668;2022-10-18T14:15:06;22.40;69.80
42989;DHT22;28622;43.716;20.668;2022-10-18T14:20:29;22.10;69.40
42989;DHT22;28622;43.716;20.668;2022-10-18T14:23:19;21.90;70.10
42989;DHT22;28622;43.716;20.668;2022-10-18T14:25:46;21.70;70.60
42989;DHT22;28622;43.716;20.668;2022-10-18T14:30:57;21.40;71.70
42989;DHT22;28622;43.716;20.668;2022-10-18T14:33:42;21.30;72.50
42989;DHT22;28622;43.716;20.668;2022-10-18T14:36:13;21.10;72.90
42989;DHT22;28622;43.716;20.668;2022-10-18T14:38:59;21.00;73.00
42989;DHT22;28622;43.716;20.668;2022-10-18T14:41:27;20.70;73.70
42989;DHT22;28622;43.716;20.668;2022-10-18T14:46:51;20.20;74.00
42989;DHT22;28622;43.716;20.668;2022-10-18T14:49:18;20.20;75.10
42989;DHT22;28622;43.716;20.668;2022-10-18T14:51:50;20.10;75.50
42989;DHT22;28622;43.716;20.668;2022-10-18T14:54:20;20.10;75.90
42989;DHT22;28622;43.716;20.668;2022-10-18T14:56:47;20.00;75.80
42989;DHT22;28622;43.716;20.668;2022-10-18T14:59:27;19.90;76.20
42989;DHT22;28622;43.716;20.668;2022-10-18T15:01:59;19.70;76.20
42989;DHT22;28622;43.716;20.668;2022-10-18T15:04:27;19.60;76.00
42989;DHT22;28622;43.716;20.668;2022-10-18T15:07:01;19.60;77.10
42989;DHT22;28622;43.716;20.668;2022-10-18T15:09:28;19.60;77.00
42989;DHT22;28622;43.716;20.668;2022-10-18T15:11:54;19.50;77.70
42989;DHT22;28622;43.716;20.668;2022-10-18T15:14:23;19.50;78.20
42989;DHT22;28622;43.716;20.668;2022-10-18T15:16:51;19.40;78.50
42989;DHT22;28622;43.716;20.668;2022-10-18T15:19:34;19.30;78.80
42989;DHT22;28622;43.716;20.668;2022-10-18T15:22:08;19.20;78.70
42989;DHT22;28622;43.716;20.668;2022-10-18T15:24:36;19.20;79.20
42989;DHT22;28622;43.716;20.668;2022-10-18T15:27:28;19.00;79.40
42989;DHT22;28622;43.716;20.668;2022-10-18T15:29:54;18.90;79.70
42989;DHT22;28622;43.716;20.668;2022-10-18T15:32:24;18.80;80.20
42989;DHT22;28622;43.716;20.668;2022-10-18T15:34:51;18.70;79.70
42989;DHT22;28622;43.716;20.668;2022-10-18T15:37:33;18.70;81.20
42989;DHT22;28622;43.716;20.668;2022-10-18T15:42:44;18.30;84.90
42989;DHT22;28622;43.716;20.668;2022-10-18T15:45:33;18.10;85.00
42989;DHT22;28622;43.716;20.668;2022-10-18T15:56:09;17.10;90.40
42989;DHT22;28622;43.716;20.668;2022-10-18T15:58:40;16.90;90.60
42989;DHT22;28622;43.716;20.668;2022-10-18T16:01:29;16.80;91.30
42989;DHT22;28622;43.716;20.668;2022-10-18T16:03:57;16.60;91.90
42989;DHT22;28622;43.716;20.668;2022-10-18T16:06:23;16.50;92.70
42989;DHT22;28622;43.716;20.668;2022-10-18T16:08:51;16.30;92.60
42989;DHT22;28622;43.716;20.668;2022-10-18T16:11:20;16.20;93.00
42989;DHT22;28622;43.716;20.668;2022-10-18T16:16:18;15.80;93.70
42989;DHT22;28622;43.716;20.668;2022-10-18T16:18:45;15.70;94.40
42989;DHT22;28622;43.716;20.668;2022-10-18T16:21:26;15.60;94.30
42989;DHT22;28622;43.716;20.668;2022-10-18T16:23:53;15.60;94.70
42989;DHT22;28622;43.716;20.668;2022-10-18T16:26:20;15.60;94.70
42989;DHT22;28622;43.716;20.668;2022-10-18T16:28:47;15.50;94.90
42989;DHT22;28622;43.716;20.668;2022-10-18T16:31:16;15.40;95.30
42989;DHT22;28622;43.716;20.668;2022-10-18T16:33:43;15.30;95.50
42989;DHT22;28622;43.716;20.668;2022-10-18T16:36:21;15.20;95.80
42989;DHT22;28622;43.716;20.668;2022-10-18T16:38:48;15.10;95.80
42989;DHT22;28622;43.716;20.668;2022-10-18T16:41:15;15.00;96.20
42989;DHT22;28622;43.716;20.668;2022-10-18T16:43:43;14.90;96.10
42989;DHT22;28622;43.716;20.668;2022-10-18T16:46:19;14.60;96.60
42989;DHT22;28622;43.716;20.668;2022-10-18T16:48:46;14.60;97.10
42989;DHT22;28622;43.716;20.668;2022-10-18T16:51:12;14.50;97.30
42989;DHT22;28622;43.716;20.668;2022-10-18T16:53:38;14.50;97.20
42989;DHT22;28622;43.716;20.668;2022-10-18T16:56:09;14.40;97.60
42989;DHT22;28622;43.716;20.668;2022-10-18T16:58:36;14.30;98.20
42989;DHT22;28622;43.716;20.668;2022-10-18T17:01:02;14.20;98.20
42989;DHT22;28622;43.716;20.668;2022-10-18T17:03:28;14.10;98.70
42989;DHT22;28622;43.716;20.668;2022-10-18T17:05:54;14.10;98.90
42989;DHT22;28622;43.716;20.668;2022-10-18T17:08:25;14.00;99.30
42989;DHT22;28622;43.716;20.668;2022-10-18T17:10:54;14.00;99.90
42989;DHT22;28622;43.716;20.668;2022-10-18T17:13:22;13.90;99.90
42989;DHT22;28622;43.716;20.668;2022-10-18T17:15:49;13.80;99.90
42989;DHT22;28622;43.716;20.668;2022-10-18T17:18:17;13.60;99.90
42989;DHT22;28622;43.716;20.668;2022-10-18T17:20:45;13.40;99.90
42989;DHT22;28622;43.716;20.668;2022-10-18T17:23:11;13.40;99.90
42989;DHT22;28622;43.716;20.668;2022-10-18T17:25:38;13.40;99.90
42989;DHT22;28622;43.716;20.668;2022-10-18T17:28:05;13.40;99.90
42989;DHT22;28622;43.716;20.668;2022-10-18T17:30:32;13.30;99.90
42989;DHT22;28622;43.716;20.668;2022-10-18T17:32:58;13.10;99.90
42989;DHT22;28622;43.716;20.668;2022-10-18T17:35:24;13.00;99.90
42989;DHT22;28622;43.716;20.668;2022-10-18T17:37:50;13.00;99.90
42989;DHT22;28622;43.716;20.668;2022-10-18T17:40:18;13.00;99.90
42989;DHT22;28622;43.716;20.668;2022-10-18T17:42:45;13.00;99.90
42989;DHT22;28622;43.716;20.668;2022-10-18T17:45:12;13.00;99.90
42989;DHT22;28622;43.716;20.668;2022-10-18T17:47:38;13.00;99.90
42989;DHT22;28622;43.716;20.668;2022-10-18T17:50:04;13.00;99.90
42989;DHT22;28622;43.716;20.668;2022-10-18T17:52:30;13.00;99.90
42989;DHT22;28622;43.716;20.668;2022-10-18T17:54:55;13.00;99.90
42989;DHT22;28622;43.716;20.668;2022-10-18T17:57:21;12.80;99.90
42989;DHT22;28622;43.716;20.668;2022-10-18T17:59:47;12.70;99.90
42989;DHT22;28622;43.716;20.668;2022-10-18T18:02:13;12.50;99.90
42989;DHT22;28622;43.716;20.668;2022-10-18T18:04:39;12.40;99.90
42989;DHT22;28622;43.716;20.668;2022-10-18T18:07:05;12.20;99.90
42989;DHT22;28622;43.716;20.668;2022-10-18T18:09:31;12.00;99.90
42989;DHT22;28622;43.716;20.668;2022-10-18T18:11:57;11.90;99.90
42989;DHT22;28622;43.716;20.668;2022-10-18T18:14:23;11.80;99.90
42989;DHT22;28622;43.716;20.668;2022-10-18T18:16:49;11.70;99.90
42989;DHT22;28622;43.716;20.668;2022-10-18T18:19:15;11.60;99.90
42989;DHT22;28622;43.716;20.668;2022-10-18T18:21:44;11.60;99.90
42989;DHT22;28622;43.716;20.668;2022-10-18T18:24:10;11.60;99.90
42989;DHT22;28622;43.716;20.668;2022-10-18T18:26:40;11.50;99.90
42989;DHT22;28622;43.716;20.668;2022-10-18T18:29:08;11.40;99.90
42989;DHT22;28622;43.716;20.668;2022-10-18T18:31:34;11.50;99.90
42989;DHT22;28622;43.716;20.668;2022-10-18T18:34:00;11.40;99.90
42989;DHT22;28622;43.716;20.668;2022-10-18T18:36:26;11.40;99.90
42989;DHT22;28622;43.716;20.668;2022-10-18T18:38:53;11.30;99.90
42989;DHT22;28622;43.716;20.668;2022-10-18T18:41:21;11.30;99.90
42989;DHT22;28622;43.716;20.668;2022-10-18T18:43:55;11.20;99.90
42989;DHT22;28622;43.716;20.668;2022-10-18T18:46:23;11.20;99.90